createdAt,value
2018-09-21T00:01:45.490Z,99.90
2018-09-21T00:04:14.901Z,99.90
2018-09-21T00:06:44.165Z,99.90
2018-09-21T00:09:13.624Z,99.90
2018-09-21T00:11:43.321Z,99.90
2018-09-21T00:14:12.633Z,99.90
2018-09-21T00:16:42.043Z,99.90
2018-09-21T00:19:11.377Z,99.90
2018-09-21T00:21:40.839Z,99.90
2018-09-21T00:24:10.147Z,99.90
2018-09-21T00:26:39.445Z,99.90
2018-09-21T00:29:08.859Z,99.90
2018-09-21T00:31:38.123Z,99.90
2018-09-21T00:34:07.423Z,99.90
2018-09-21T00:36:36.787Z,99.90
2018-09-21T00:39:08.619Z,99.90
2018-09-21T00:41:37.815Z,99.90
2018-09-21T00:44:07.672Z,99.90
2018-09-21T00:46:38.154Z,99.90
2018-09-21T00:49:07.432Z,99.90
2018-09-21T00:51:36.856Z,99.90
2018-09-21T00:54:06.256Z,99.90
2018-09-21T00:56:35.643Z,99.90
2018-09-21T00:59:04.953Z,99.90
2018-09-21T01:01:34.723Z,99.90
2018-09-21T01:04:04.464Z,99.90
2018-09-21T01:06:33.878Z,99.90
2018-09-21T01:09:03.505Z,99.90
2018-09-21T01:11:33.010Z,99.90
2018-09-21T01:14:02.275Z,99.90
2018-09-21T01:16:32.179Z,99.90
2018-09-21T01:19:01.631Z,99.90
2018-09-21T01:21:31.105Z,99.90
2018-09-21T01:24:00.541Z,99.90
2018-09-21T01:26:29.898Z,99.90
2018-09-21T01:28:59.271Z,99.90
2018-09-21T01:31:28.787Z,99.90
2018-09-21T01:33:58.141Z,99.90
2018-09-21T01:36:27.922Z,99.90
2018-09-21T01:38:57.552Z,99.90
2018-09-21T01:41:26.635Z,99.90
2018-09-21T01:43:56.162Z,99.90
2018-09-21T01:46:25.955Z,99.90
2018-09-21T01:48:55.281Z,99.90
2018-09-21T01:51:24.644Z,99.90
2018-09-21T01:53:53.960Z,99.90
2018-09-21T01:56:23.385Z,99.90
2018-09-21T01:58:52.843Z,99.90
2018-09-21T02:01:22.247Z,99.90
2018-09-21T02:03:51.961Z,99.90
2018-09-21T02:06:21.216Z,99.90
2018-09-21T02:08:50.771Z,99.90
2018-09-21T02:11:20.074Z,99.90
2018-09-21T02:13:49.369Z,99.90
2018-09-21T02:16:18.843Z,99.90
2018-09-21T02:18:48.066Z,99.90
2018-09-21T02:21:17.474Z,99.90
2018-09-21T02:23:46.794Z,99.90
2018-09-21T02:26:19.915Z,99.90
2018-09-21T02:28:49.425Z,99.90
2018-09-21T02:31:18.729Z,99.90
2018-09-21T02:33:48.593Z,99.90
2018-09-21T02:36:18.142Z,99.90
2018-09-21T02:38:47.452Z,99.90
2018-09-21T02:41:17.258Z,99.90
2018-09-21T02:43:46.425Z,99.90
2018-09-21T02:46:15.742Z,99.90
2018-09-21T02:48:44.979Z,99.90
2018-09-21T02:51:14.231Z,99.90
2018-09-21T02:53:43.398Z,99.90
2018-09-21T02:56:12.923Z,99.90
2018-09-21T02:58:42.156Z,99.90
2018-09-21T03:01:11.378Z,99.90
2018-09-21T03:03:40.594Z,99.90
2018-09-21T03:06:09.782Z,99.90
2018-09-21T03:08:39.150Z,99.90
2018-09-21T03:11:08.454Z,99.90
2018-09-21T03:13:38.671Z,99.90
2018-09-21T03:16:08.076Z,99.90
2018-09-21T03:18:37.544Z,99.90
2018-09-21T03:21:07.099Z,99.90
2018-09-21T03:23:36.548Z,99.90
2018-09-21T03:26:05.749Z,99.90
2018-09-21T03:28:35.122Z,99.90
2018-09-21T03:31:04.410Z,99.90
2018-09-21T03:33:33.818Z,99.90
2018-09-21T03:36:03.526Z,99.90
2018-09-21T03:38:33.428Z,99.90
2018-09-21T03:41:02.782Z,99.90
2018-09-21T03:43:32.158Z,99.90
2018-09-21T03:46:01.897Z,99.90
2018-09-21T03:48:31.614Z,99.90
2018-09-21T03:51:01.108Z,99.90
2018-09-21T03:53:30.905Z,99.90
2018-09-21T03:56:00.152Z,99.90
2018-09-21T03:58:29.508Z,99.90
2018-09-21T04:00:59.013Z,99.90
2018-09-21T04:03:28.253Z,99.90
2018-09-21T04:05:57.657Z,99.90
2018-09-21T04:08:33.020Z,99.90
2018-09-21T04:11:02.690Z,99.90
2018-09-21T04:13:32.690Z,99.90
2018-09-21T04:16:02.032Z,99.90
2018-09-21T04:18:31.522Z,99.90
2018-09-21T04:21:01.024Z,99.90
2018-09-21T04:23:30.412Z,99.90
2018-09-21T04:25:59.942Z,99.90
2018-09-21T04:28:29.344Z,99.90
2018-09-21T04:30:58.614Z,99.90
2018-09-21T04:33:28.160Z,99.90
2018-09-21T04:35:58.121Z,99.90
2018-09-21T04:38:27.441Z,99.90
2018-09-21T04:40:56.856Z,99.90
2018-09-21T04:43:26.548Z,99.90
2018-09-21T04:45:56.214Z,99.90
2018-09-21T04:48:25.713Z,99.90
2018-09-21T04:50:54.990Z,99.90
2018-09-21T04:53:24.413Z,99.90
2018-09-21T04:55:54.136Z,99.90
2018-09-21T04:58:23.579Z,99.90
2018-09-21T05:00:53.132Z,99.90
2018-09-21T05:03:22.709Z,99.90
2018-09-21T05:05:53.255Z,99.90
2018-09-21T05:08:22.948Z,99.90
2018-09-21T05:10:52.074Z,99.90
2018-09-21T05:13:21.450Z,99.90
2018-09-21T05:15:50.892Z,99.90
2018-09-21T05:18:20.358Z,99.90
2018-09-21T05:20:49.774Z,99.90
2018-09-21T05:23:19.168Z,99.90
2018-09-21T05:25:48.580Z,99.90
2018-09-21T05:28:18.008Z,99.90
2018-09-21T05:30:47.281Z,99.90
2018-09-21T05:33:16.624Z,99.90
2018-09-21T05:35:46.074Z,99.90
2018-09-21T05:38:15.466Z,99.90
2018-09-21T05:40:44.998Z,99.90
2018-09-21T05:43:14.690Z,99.90
2018-09-21T05:45:49.578Z,99.90
2018-09-21T05:48:18.938Z,99.90
2018-09-21T05:50:48.974Z,99.90
2018-09-21T05:53:18.278Z,99.90
2018-09-21T05:55:47.914Z,99.90
2018-09-21T05:58:17.616Z,99.90
2018-09-21T06:00:46.938Z,99.90
2018-09-21T06:03:16.292Z,99.90
2018-09-21T06:05:45.726Z,99.90
2018-09-21T06:08:14.944Z,99.90
2018-09-21T06:10:44.183Z,99.90
2018-09-21T06:13:13.674Z,99.90
2018-09-21T06:15:43.300Z,99.90
2018-09-21T06:18:12.356Z,99.90
2018-09-21T06:20:47.712Z,99.90
2018-09-21T06:23:17.242Z,99.90
2018-09-21T06:25:46.451Z,99.90
2018-09-21T06:28:16.056Z,99.90
2018-09-21T06:30:45.406Z,99.90
2018-09-21T06:33:14.938Z,99.90
2018-09-21T06:35:44.333Z,99.90
2018-09-21T06:38:13.858Z,99.90
2018-09-21T06:40:43.279Z,99.90
2018-09-21T06:43:12.787Z,99.90
2018-09-21T06:45:42.160Z,99.90
2018-09-21T06:48:11.626Z,99.90
2018-09-21T06:50:40.961Z,99.90
2018-09-21T06:53:10.663Z,99.90
2018-09-21T06:55:40.073Z,99.90
2018-09-21T06:58:09.715Z,99.90
2018-09-21T07:00:39.106Z,99.90
2018-09-21T07:03:08.279Z,99.90
2018-09-21T07:05:37.607Z,99.90
2018-09-21T07:08:06.973Z,99.90
2018-09-21T07:10:36.714Z,99.90
2018-09-21T07:13:06.191Z,99.90
2018-09-21T07:15:35.434Z,99.90
2018-09-21T07:18:04.566Z,99.90
2018-09-21T07:20:34.238Z,99.90
2018-09-21T07:23:03.607Z,99.90
2018-09-21T07:25:33.106Z,99.90
2018-09-21T07:28:02.616Z,99.90
2018-09-21T07:30:32.161Z,99.90
2018-09-21T07:33:01.497Z,99.90
2018-09-21T07:35:31.015Z,99.90
2018-09-21T07:38:00.443Z,99.90
2018-09-21T07:40:30.343Z,99.90
2018-09-21T07:42:59.785Z,99.90
2018-09-21T07:45:29.329Z,99.90
2018-09-21T07:47:58.873Z,99.90
2018-09-21T07:50:28.314Z,99.90
2018-09-21T07:52:57.415Z,99.90
2018-09-21T07:55:26.705Z,99.90
2018-09-21T07:57:56.290Z,99.90
2018-09-21T08:00:25.649Z,99.90
2018-09-21T08:02:55.075Z,99.90
2018-09-21T08:05:32.325Z,99.90
2018-09-21T08:08:02.527Z,99.90
2018-09-21T08:10:31.818Z,99.90
2018-09-21T08:13:01.973Z,99.90
2018-09-21T08:15:31.457Z,99.90
2018-09-21T08:18:00.742Z,99.90
2018-09-21T08:20:30.385Z,99.90
2018-09-21T08:23:00.109Z,99.90
2018-09-21T08:25:29.149Z,99.90
2018-09-21T08:27:58.766Z,99.90
2018-09-21T08:30:28.110Z,99.90
2018-09-21T08:32:57.326Z,99.90
2018-09-21T08:35:26.544Z,99.90
2018-09-21T08:37:56.276Z,99.90
2018-09-21T08:40:25.632Z,99.90
2018-09-21T08:42:54.951Z,99.90
2018-09-21T08:45:24.751Z,99.90
2018-09-21T08:47:53.976Z,99.90
2018-09-21T08:50:23.457Z,99.90
2018-09-21T08:52:53.153Z,99.90
2018-09-21T08:55:22.581Z,99.90
2018-09-21T08:57:52.115Z,99.90
2018-09-21T09:00:21.361Z,99.90
2018-09-21T09:02:50.797Z,99.90
2018-09-21T09:05:22.746Z,99.90
2018-09-21T09:07:52.268Z,99.90
2018-09-21T09:10:22.026Z,99.90
2018-09-21T09:12:51.349Z,99.90
2018-09-21T09:15:20.460Z,99.90
2018-09-21T09:17:49.905Z,99.90
2018-09-21T09:20:19.398Z,99.90
2018-09-21T09:22:48.986Z,99.90
2018-09-21T09:25:18.509Z,99.90
2018-09-21T09:27:47.825Z,99.90
2018-09-21T09:30:17.322Z,99.90
2018-09-21T09:32:46.695Z,99.90
2018-09-21T09:35:16.913Z,99.90
2018-09-21T09:37:46.457Z,99.90
2018-09-21T09:40:15.630Z,98.20
2018-09-21T09:42:45.216Z,98.50
2018-09-21T09:45:14.664Z,97.20
2018-09-21T09:47:44.257Z,95.90
2018-09-21T09:50:13.986Z,96.40
2018-09-21T09:52:43.484Z,97.50
2018-09-21T09:55:12.900Z,96.20
2018-09-21T09:57:42.073Z,96.10
2018-09-21T10:00:11.392Z,97.10
2018-09-21T10:02:40.978Z,97.20
2018-09-21T10:05:10.390Z,97.30
2018-09-21T10:07:39.758Z,95.50
2018-09-21T10:10:09.135Z,94.70
2018-09-21T10:12:38.359Z,95.80
2018-09-21T10:15:07.565Z,95.90
2018-09-21T10:17:37.175Z,95.20
2018-09-21T10:20:06.706Z,93.50
2018-09-21T10:22:35.972Z,93.00
2018-09-21T10:25:05.588Z,93.00
2018-09-21T10:27:35.286Z,91.80
2018-09-21T10:30:04.802Z,92.10
2018-09-21T10:32:34.270Z,92.50
2018-09-21T10:35:03.757Z,92.80
2018-09-21T10:37:33.150Z,92.60
2018-09-21T10:40:02.626Z,92.60
2018-09-21T10:42:32.386Z,92.60
2018-09-21T10:45:01.789Z,91.40
2018-09-21T10:47:31.270Z,91.00
2018-09-21T10:50:00.861Z,90.20
2018-09-21T10:52:30.151Z,88.70
2018-09-21T10:54:59.576Z,89.40
2018-09-21T10:57:28.999Z,88.80
2018-09-21T10:59:58.323Z,90.00
2018-09-21T11:02:27.673Z,90.00
2018-09-21T11:04:57.318Z,88.70
2018-09-21T11:07:26.986Z,87.10
2018-09-21T11:09:56.551Z,88.10
2018-09-21T11:12:25.985Z,89.50
2018-09-21T11:14:55.613Z,87.90
2018-09-21T11:17:25.059Z,87.10
2018-09-21T11:19:54.272Z,86.50
2018-09-21T11:22:23.790Z,87.60
2018-09-21T11:24:53.112Z,87.60
2018-09-21T11:27:22.398Z,83.90
2018-09-21T11:29:51.554Z,84.70
2018-09-21T11:32:21.248Z,82.70
2018-09-21T11:34:50.779Z,83.80
2018-09-21T11:37:20.425Z,81.60
2018-09-21T11:39:49.892Z,82.30
2018-09-21T11:42:19.256Z,85.40
2018-09-21T11:44:48.659Z,82.70
2018-09-21T11:47:18.154Z,80.60
2018-09-21T11:49:47.851Z,80.60
2018-09-21T11:52:17.187Z,81.00
2018-09-21T11:54:46.760Z,75.90
2018-09-21T11:57:15.782Z,76.90
2018-09-21T11:59:45.085Z,72.40
2018-09-21T12:02:14.241Z,70.20
2018-09-21T12:04:43.857Z,69.70
2018-09-21T12:07:13.234Z,68.60
2018-09-21T12:09:43.194Z,70.80
2018-09-21T12:12:12.889Z,71.00
2018-09-21T12:14:42.266Z,71.00
2018-09-21T12:17:11.825Z,71.60
2018-09-21T12:19:41.162Z,72.30
2018-09-21T12:22:10.879Z,71.70
2018-09-21T12:24:40.271Z,70.90
2018-09-21T12:27:09.532Z,71.20
2018-09-21T12:29:39.170Z,69.50
2018-09-21T12:32:07.825Z,68.90
2018-09-21T12:34:37.084Z,69.90
2018-09-21T12:37:06.228Z,67.60
2018-09-21T12:39:35.632Z,67.80
2018-09-21T12:42:05.828Z,67.10
2018-09-21T12:44:35.182Z,68.30
2018-09-21T12:47:04.860Z,65.80
2018-09-21T12:49:35.075Z,67.30
2018-09-21T12:52:04.073Z,66.30
2018-09-21T12:54:33.446Z,68.90
2018-09-21T12:57:02.731Z,68.10
2018-09-21T12:59:31.881Z,69.20
2018-09-21T13:02:01.273Z,68.50
2018-09-21T13:04:30.692Z,66.90
2018-09-21T13:07:00.063Z,67.90
2018-09-21T13:09:29.276Z,68.50
2018-09-21T13:11:58.660Z,70.80
2018-09-21T13:14:27.917Z,71.20
2018-09-21T13:16:57.123Z,70.90
2018-09-21T13:19:26.430Z,69.80
2018-09-21T13:21:55.803Z,70.80
2018-09-21T13:24:25.209Z,71.00
2018-09-21T13:26:55.039Z,71.00
2018-09-21T13:29:24.451Z,70.20
2018-09-21T13:31:55.150Z,70.00
2018-09-21T13:34:24.525Z,69.70
2018-09-21T13:36:53.832Z,70.30
2018-09-21T13:39:23.217Z,69.40
2018-09-21T13:41:52.651Z,69.90
2018-09-21T13:44:21.814Z,70.80
2018-09-21T13:46:51.121Z,69.20
2018-09-21T13:49:20.498Z,68.60
2018-09-21T13:51:49.908Z,69.00
2018-09-21T13:54:19.116Z,68.70
2018-09-21T13:56:48.621Z,68.80
2018-09-21T13:59:18.143Z,70.20
2018-09-21T14:01:48.408Z,69.70
2018-09-21T14:04:17.478Z,69.40
2018-09-21T14:06:46.800Z,69.20
2018-09-21T14:09:16.122Z,70.30
2018-09-21T14:11:45.762Z,71.60
2018-09-21T14:14:14.970Z,72.90
2018-09-21T14:16:44.389Z,73.50
2018-09-21T14:19:13.899Z,75.00
2018-09-21T14:21:43.327Z,75.40
2018-09-21T14:24:13.417Z,83.30
2018-09-21T14:26:42.945Z,86.20
2018-09-21T14:29:12.258Z,88.90
2018-09-21T14:31:41.423Z,90.30
2018-09-21T14:34:11.243Z,91.10
2018-09-21T14:36:40.821Z,92.00
2018-09-21T14:39:11.472Z,92.90
2018-09-21T14:41:41.087Z,93.30
2018-09-21T14:44:10.374Z,93.50
2018-09-21T14:46:39.665Z,93.90
2018-09-21T14:49:08.957Z,93.90
2018-09-21T14:51:38.293Z,94.40
2018-09-21T14:54:08.090Z,94.90
2018-09-21T14:56:37.393Z,95.20
2018-09-21T14:59:06.911Z,95.70
2018-09-21T15:01:36.565Z,95.40
2018-09-21T15:04:06.348Z,95.70
2018-09-21T15:06:35.516Z,95.90
2018-09-21T15:09:07.432Z,96.40
2018-09-21T15:11:37.216Z,96.20
2018-09-21T15:14:06.916Z,96.40
2018-09-21T15:16:36.261Z,96.60
2018-09-21T15:19:05.631Z,97.20
2018-09-21T15:21:35.367Z,97.70
2018-09-21T15:24:04.919Z,99.00
2018-09-21T15:26:34.551Z,99.90
2018-09-21T15:29:03.929Z,99.90
2018-09-21T15:31:33.625Z,99.90
2018-09-21T15:34:03.169Z,99.90
2018-09-21T15:36:32.540Z,99.90
2018-09-21T15:39:02.089Z,99.90
2018-09-21T15:41:32.473Z,99.90
2018-09-21T15:44:08.763Z,99.90
2018-09-21T15:46:43.903Z,99.90
2018-09-21T15:49:13.546Z,99.90
2018-09-21T15:51:42.779Z,99.90
2018-09-21T15:54:12.669Z,99.90
2018-09-21T15:56:41.935Z,99.90
2018-09-21T15:59:11.428Z,99.90
2018-09-21T16:01:40.811Z,99.90
2018-09-21T16:04:10.331Z,99.90
2018-09-21T16:06:39.725Z,99.90
2018-09-21T16:09:09.681Z,99.90
2018-09-21T16:11:39.375Z,99.90
2018-09-21T16:14:08.954Z,99.90
2018-09-21T16:16:38.777Z,99.90
2018-09-21T16:19:08.190Z,99.90
2018-09-21T16:21:37.448Z,99.90
2018-09-21T16:24:07.028Z,99.90
2018-09-21T16:26:36.699Z,99.90
2018-09-21T16:29:05.916Z,99.90
2018-09-21T16:31:35.175Z,99.90
2018-09-21T16:34:04.872Z,99.90
2018-09-21T16:36:36.102Z,99.90
2018-09-21T16:39:08.185Z,99.90
2018-09-21T16:41:37.701Z,99.90
2018-09-21T16:44:07.304Z,99.90
2018-09-21T16:46:36.935Z,99.90
2018-09-21T16:49:06.310Z,99.90
2018-09-21T16:51:35.663Z,99.90
2018-09-21T16:54:14.396Z,99.90
2018-09-21T16:56:43.874Z,99.90
2018-09-21T16:59:13.045Z,99.90
2018-09-21T17:01:42.375Z,99.90
2018-09-21T17:04:11.753Z,99.90
2018-09-21T17:06:41.497Z,99.90
2018-09-21T17:09:12.088Z,99.90
2018-09-21T17:11:41.975Z,99.90
2018-09-21T17:14:11.253Z,99.90
2018-09-21T17:16:40.690Z,99.90
2018-09-21T17:19:10.060Z,99.90
2018-09-21T17:21:39.430Z,99.90
2018-09-21T17:24:08.983Z,99.90
2018-09-21T17:26:39.601Z,99.90
2018-09-21T17:29:08.979Z,99.90
2018-09-21T17:31:38.538Z,99.90
2018-09-21T17:34:08.295Z,99.90
2018-09-21T17:36:38.189Z,99.90
2018-09-21T17:39:11.367Z,99.90
2018-09-21T17:41:41.009Z,99.90
2018-09-21T17:44:10.425Z,99.90
2018-09-21T17:46:39.816Z,99.90
2018-09-21T17:49:09.424Z,99.90
2018-09-21T17:51:38.793Z,99.90
2018-09-21T17:54:08.377Z,99.90
2018-09-21T17:56:37.656Z,99.90
2018-09-21T17:59:07.058Z,99.90
2018-09-21T18:01:37.043Z,99.90
2018-09-21T18:04:06.610Z,99.90
2018-09-21T18:06:42.781Z,99.90
2018-09-21T18:09:12.847Z,99.90
2018-09-21T18:11:42.289Z,99.90
2018-09-21T18:14:19.102Z,99.90
2018-09-21T18:16:48.728Z,99.90
2018-09-21T18:19:18.145Z,99.90
2018-09-21T18:21:47.605Z,99.90
2018-09-21T18:24:17.118Z,99.90
2018-09-21T18:26:46.549Z,99.90
2018-09-21T18:29:21.226Z,99.90
2018-09-21T18:31:50.922Z,99.90
2018-09-21T18:34:20.422Z,99.90
2018-09-21T18:36:50.412Z,99.90
2018-09-21T18:39:19.762Z,99.90
2018-09-21T18:41:49.037Z,99.90
2018-09-21T18:44:18.464Z,99.90
2018-09-21T18:46:48.794Z,99.90
2018-09-21T18:49:22.639Z,99.90
2018-09-21T18:51:52.108Z,99.90
2018-09-21T18:54:23.214Z,99.90
2018-09-21T18:56:52.869Z,99.90
2018-09-21T18:59:22.368Z,99.90
2018-09-21T19:01:52.121Z,99.90
2018-09-21T19:04:21.369Z,99.90
2018-09-21T19:06:50.916Z,99.90
2018-09-21T19:09:20.520Z,99.90
2018-09-21T19:11:49.953Z,99.90
2018-09-21T19:14:21.473Z,99.90
2018-09-21T19:16:50.689Z,99.90
2018-09-21T19:19:35.276Z,99.90
2018-09-21T19:22:04.513Z,99.90
2018-09-21T19:24:33.826Z,99.90
2018-09-21T19:27:03.360Z,99.90
2018-09-21T19:29:32.630Z,99.90
2018-09-21T19:32:01.825Z,99.90
2018-09-21T19:34:31.492Z,99.90
2018-09-21T19:37:01.084Z,99.90
2018-09-21T19:39:30.416Z,99.90
2018-09-21T19:42:01.758Z,99.90
2018-09-21T19:44:31.082Z,99.90
2018-09-21T19:47:00.476Z,99.90
2018-09-21T19:49:30.304Z,99.90
2018-09-21T19:51:59.677Z,99.90
2018-09-21T19:54:29.007Z,99.90
2018-09-21T19:56:58.336Z,99.90
2018-09-21T19:59:27.739Z,99.90
2018-09-21T20:01:57.025Z,99.90
2018-09-21T20:04:26.236Z,99.90
2018-09-21T20:06:55.928Z,99.90
2018-09-21T20:09:25.281Z,99.90
2018-09-21T20:11:54.516Z,99.90
2018-09-21T20:14:24.168Z,99.90
2018-09-21T20:16:53.622Z,99.90
2018-09-21T20:19:23.153Z,99.90
2018-09-21T20:21:52.556Z,99.90
2018-09-21T20:24:22.053Z,99.90
2018-09-21T20:26:52.491Z,99.90
2018-09-21T20:29:21.982Z,99.90
2018-09-21T20:31:56.460Z,99.90
2018-09-21T20:34:25.958Z,99.90
2018-09-21T20:37:01.974Z,99.90
2018-09-21T20:44:25.553Z,99.90
2018-09-21T20:46:54.731Z,99.90
2018-09-21T20:49:23.934Z,99.90
2018-09-21T20:51:53.342Z,99.90
2018-09-21T20:54:23.945Z,99.90
2018-09-21T20:56:53.238Z,99.90
2018-09-21T20:59:22.680Z,99.90
2018-09-21T21:01:51.900Z,99.90
2018-09-21T21:04:22.588Z,99.90
2018-09-21T21:06:51.930Z,99.90
2018-09-21T21:09:21.242Z,99.90
2018-09-21T21:11:50.576Z,99.90
2018-09-21T21:14:23.955Z,99.90
2018-09-21T21:16:53.358Z,99.90
2018-09-21T21:19:22.629Z,99.90
2018-09-21T21:21:51.850Z,99.90
2018-09-21T21:24:21.152Z,99.90
2018-09-21T21:26:50.818Z,99.90
2018-09-21T21:29:20.298Z,99.90
2018-09-21T21:31:50.280Z,99.90
2018-09-21T21:34:19.673Z,99.90
2018-09-21T21:36:48.945Z,99.90
2018-09-21T21:39:18.702Z,99.90
2018-09-21T21:41:48.010Z,99.90
2018-09-21T21:44:17.400Z,99.90
2018-09-21T21:46:46.798Z,99.90
2018-09-21T21:49:16.301Z,99.90
2018-09-21T21:51:45.602Z,99.90
2018-09-21T21:54:15.193Z,99.90
2018-09-21T21:56:44.414Z,99.90
2018-09-21T21:59:13.565Z,99.90
2018-09-21T22:01:48.157Z,99.90
2018-09-21T22:04:18.595Z,99.90
2018-09-21T22:06:48.163Z,99.90
2018-09-21T22:09:17.295Z,99.90
2018-09-21T22:11:51.514Z,99.90
2018-09-21T22:14:20.774Z,99.90
2018-09-21T22:16:50.288Z,99.90
2018-09-21T22:19:19.737Z,99.90
2018-09-21T22:21:49.174Z,99.90
2018-09-21T22:24:18.698Z,99.90
2018-09-21T22:26:48.194Z,99.90
2018-09-21T22:29:17.736Z,99.90
2018-09-21T22:31:47.100Z,99.90
2018-09-21T22:34:16.387Z,99.90
2018-09-21T22:36:45.689Z,99.90
2018-09-21T22:39:15.325Z,99.90
2018-09-21T22:41:44.675Z,99.90
2018-09-21T22:44:14.034Z,99.90
2018-09-21T22:46:43.231Z,99.90
2018-09-21T22:49:27.003Z,99.90
2018-09-21T22:51:56.266Z,99.90
2018-09-21T22:54:25.584Z,99.90
2018-09-21T22:56:54.957Z,99.90
2018-09-21T22:59:24.802Z,99.90
2018-09-21T23:01:54.187Z,99.90
2018-09-21T23:04:23.790Z,99.90
2018-09-21T23:06:53.084Z,99.90
2018-09-21T23:09:22.694Z,99.90
2018-09-21T23:11:52.008Z,99.90
2018-09-21T23:14:21.250Z,99.90
2018-09-21T23:16:50.689Z,99.90
2018-09-21T23:19:19.946Z,99.90
2018-09-21T23:21:53.714Z,99.90
2018-09-21T23:24:23.218Z,99.90
2018-09-21T23:26:52.783Z,99.90
2018-09-21T23:29:22.080Z,99.90
2018-09-21T23:31:51.316Z,99.90
2018-09-21T23:34:20.835Z,99.90
2018-09-21T23:37:14.375Z,99.90
2018-09-21T23:39:43.780Z,99.90
2018-09-21T23:42:16.936Z,99.90
2018-09-21T23:44:46.500Z,99.90
2018-09-21T23:47:15.782Z,99.90
2018-09-21T23:49:46.128Z,99.90
2018-09-21T23:52:15.702Z,99.90
2018-09-21T23:54:44.802Z,99.90
2018-09-21T23:57:14.066Z,99.90
2018-09-21T23:59:43.408Z,99.90
